Hauptseite
METAR-TAF:

METAR-TAF

Flughäfen :

Aeropuerto Internacional de la Región de Murcia

Murcia, Corvera, Spanien

Breite: 37-48-13N, Länge: 1-07-27W, Höhe: 193 m

Beobachtung

Neuester Wetterbericht von vor 24 Minuten, um 10:30 UTC
Wind 7 kt aus Ost, variierte zwischen Nord/Nordost und Ost/Südost
Temperatur 17°C
Luftfeuchtigkeit 59%
Luftdruck 1025 hPa
Sichtweite 10 km oder mehr
Leicht bewölkt in der Höhe von 2500 ft

METAR: LEMI 081030Z 08007KT 020V110 9999 FEW025 17/09 Q1025

Zeit: 12:54 (10:54 UTC)


TAF: fehlend

Wetterbeobachtungen und Prognosen von mehr als 4000 Flughäfen (METAR und TAF Bericht).

Die verfügbaren Stationen werden durch gelbe und rote Markierungen auf der Karte dargestellt.

Führen Sie die Maus auf sie, um den Namen der Station zu sehen.

Darauf klicken, um die Beobachtung von Wetterbeobachtungen und Prognosen zu sehen.

Um die Karte zu ändern : klicken Sie auf den grünen Tasten mit einem schwarzen Kreuz Zum Vergrößern, auf den grünen Button mit einem Gedankenstrich zu verkleinern, oder auf die grünen Pfeile für benachbarte Karten.


METAR-TAF: